Time;durP1;ratioP1;P1;durP2;ratioP2;P2;SDS_P1;SDS_P2;PMS_P1;PMS_P2;Temp;Humidity;BMP_temperature;BMP_pressure;BME280_temperature;BME280_humidity;BME280_pressure;Samples;Min_cycle;Max_cycle;Signal;HPM_P1;HPM_P2
2024/02/21 00:02:12;;;;;;;29.90;23.92;;;;;;;7.94;66.72;99805.09;5073734;28;20021;-49
2024/02/21 00:04:38;;;;;;;23.75;17.52;;;;;;;7.90;67.39;99795.94;5074932;28;20372;-49
2024/02/21 00:07:05;;;;;;;14.45;8.43;;;;;;;8.04;67.42;99791.91;5074963;28;20115;-48
2024/02/21 00:09:30;;;;;;;18.08;13.32;;;;;;;8.14;66.89;99790.81;5073724;28;20025;-49
2024/02/21 00:11:57;;;;;;;14.23;7.53;;;;;;;8.05;66.71;99790.91;5073573;28;20482;-49
2024/02/21 00:14:22;;;;;;;13.82;8.40;;;;;;;7.93;66.69;99793.03;5074844;28;20024;-48
2024/02/21 00:16:48;;;;;;;13.75;7.50;;;;;;;7.83;66.77;99787.06;5074776;28;20028;-49
2024/02/21 00:19:14;;;;;;;12.63;8.02;;;;;;;7.84;67.17;99786.91;5074790;28;20533;-49
2024/02/21 00:21:40;;;;;;;14.45;7.57;;;;;;;7.79;67.34;99790.00;5073372;28;20027;-48
2024/02/21 00:24:06;;;;;;;17.45;7.82;;;;;;;7.83;67.56;99784.44;5074688;28;20025;-48
2024/02/21 00:26:32;;;;;;;13.68;6.82;;;;;;;7.67;67.24;99767.72;5074166;28;20045;-49
2024/02/21 00:28:58;;;;;;;13.93;7.40;;;;;;;7.58;68.00;99771.25;5073281;28;20036;-48
2024/02/21 00:31:24;;;;;;;18.73;9.73;;;;;;;7.65;68.57;99769.66;5073207;28;20550;-49
2024/02/21 00:33:50;;;;;;;16.23;8.27;;;;;;;7.73;68.38;99764.50;5073211;28;20024;-48
2024/02/21 00:36:16;;;;;;;20.90;14.18;;;;;;;7.70;68.59;99756.94;5074448;28;20024;-48
2024/02/21 00:38:42;;;;;;;15.98;8.55;;;;;;;7.65;68.70;99761.84;5074418;28;20393;-49
2024/02/21 00:41:08;;;;;;;27.50;23.98;;;;;;;7.59;68.75;99763.25;5073366;28;20120;-48
2024/02/21 00:43:33;;;;;;;51.55;43.58;;;;;;;7.49;69.22;99751.28;5074291;28;20021;-49
2024/02/21 00:45:59;;;;;;;27.30;20.90;;;;;;;7.24;69.48;99751.09;5072861;28;20024;-49
2024/02/21 00:48:25;;;;;;;19.65;12.45;;;;;;;7.14;70.09;99751.22;5074268;28;20028;-49
2024/02/21 00:50:51;;;;;;;17.42;10.57;;;;;;;7.22;70.87;99749.63;5073906;28;20504;-48
2024/02/21 00:53:17;;;;;;;13.23;7.30;;;;;;;7.35;70.54;99757.88;5072841;28;20029;-49
2024/02/21 00:55:43;;;;;;;11.77;7.70;;;;;;;7.40;70.54;99756.47;5074093;28;20029;-49
2024/02/21 00:58:09;;;;;;;16.35;7.75;;;;;;;7.44;70.03;99746.50;5072755;28;20059;-48
2024/02/21 01:00:36;;;;;;;15.57;8.35;;;;;;;7.42;70.35;99737.19;5073973;28;20407;-49
2024/02/21 01:03:02;;;;;;;13.55;7.68;;;;;;;7.62;71.01;99732.56;5072783;28;20107;-49
2024/02/21 01:05:29;;;;;;;11.65;7.57;;;;;;;7.81;69.61;99729.75;5073835;28;20111;-49
2024/02/21 01:07:54;;;;;;;14.50;8.13;;;;;;;7.82;69.28;99730.56;5073781;28;20025;-49
2024/02/21 01:10:20;;;;;;;16.05;8.43;;;;;;;7.63;68.73;99729.81;5072509;28;20024;-49
2024/02/21 01:12:46;;;;;;;13.90;8.57;;;;;;;7.50;68.96;99725.00;5072450;28;20029;-49
2024/02/21 01:15:12;;;;;;;13.38;8.27;;;;;;;7.32;69.28;99719.81;5074012;28;20024;-49
2024/02/21 01:17:40;;;;;;;11.15;7.18;;;;;;;7.27;70.40;99721.28;5072383;28;20033;-48
2024/02/21 01:20:07;;;;;;;15.88;7.65;;;;;;;7.33;70.33;99716.25;5073674;28;20048;-48
2024/02/21 01:22:33;;;;;;;12.88;7.93;;;;;;;7.44;70.04;99712.56;5073572;28;20539;-49
2024/02/21 01:24:58;;;;;;;12.20;7.40;;;;;;;7.59;69.94;99711.00;5072161;28;20114;-49
2024/02/21 01:27:24;;;;;;;12.75;8.30;;;;;;;7.65;69.24;99708.78;5073211;28;20048;-48
2024/02/21 01:29:50;;;;;;;18.65;8.20;;;;;;;7.67;69.62;99719.88;5073469;28;20020;-49
2024/02/21 01:32:16;;;;;;;12.05;7.40;;;;;;;7.85;69.84;99719.78;5073298;28;20029;-49
2024/02/21 01:34:43;;;;;;;15.30;7.35;;;;;;;8.05;69.74;99710.72;5073642;28;20028;-49
2024/02/21 01:37:09;;;;;;;13.20;7.80;;;;;;;8.09;68.96;99701.59;5073233;28;20486;-48
2024/02/21 01:39:35;;;;;;;17.98;8.05;;;;;;;8.09;68.53;99712.03;5073239;28;20028;-48
2024/02/21 01:42:01;;;;;;;17.65;8.02;;;;;;;7.95;67.93;99712.66;5073228;28;20494;-48
2024/02/21 01:44:27;;;;;;;15.45;8.13;;;;;;;7.71;67.84;99716.78;5071871;28;20028;-49
2024/02/21 01:46:53;;;;;;;12.70;7.25;;;;;;;7.45;68.65;99718.63;5073040;28;20111;-48
2024/02/21 01:49:20;;;;;;;11.82;7.15;;;;;;;7.30;69.65;99711.31;5073076;28;20041;-49
2024/02/21 01:51:47;;;;;;;15.68;6.88;;;;;;;7.36;70.36;99704.66;5072990;28;20021;-49
2024/02/21 01:54:15;;;;;;;12.68;7.20;;;;;;;7.43;69.56;99710.13;5072982;28;20025;-49
2024/02/21 01:56:42;;;;;;;12.02;7.00;;;;;;;7.36;69.43;99704.66;5072780;28;20127;-49
2024/02/21 01:59:08;;;;;;;11.38;6.05;;;;;;;7.36;70.13;99710.75;5072857;28;20489;-48
2024/02/21 02:01:33;;;;;;;22.15;6.28;;;;;;;7.60;69.54;99711.81;5071952;28;20116;-48
2024/02/21 02:03:59;;;;;;;15.93;10.10;;;;;;;7.57;69.20;99722.59;5071733;28;20486;-49
2024/02/21 02:06:26;;;;;;;14.48;8.65;;;;;;;7.56;69.29;99705.28;5071261;28;20405;-49
2024/02/21 02:08:52;;;;;;;14.32;7.90;;;;;;;7.27;68.80;99700.41;5071381;28;20029;-48
2024/02/21 02:11:18;;;;;;;14.90;11.13;;;;;;;7.31;70.52;99699.13;5072608;28;20376;-48
2024/02/21 02:13:44;;;;;;;16.63;13.48;;;;;;;7.30;70.40;99705.28;5072528;28;20130;-48
2024/02/21 02:16:10;;;;;;;18.23;13.13;;;;;;;7.22;69.74;99706.06;5072547;28;20032;-48
2024/02/21 02:18:35;;;;;;;12.85;8.18;;;;;;;7.27;70.44;99697.78;5071165;28;20032;-48
2024/02/21 02:21:01;;;;;;;17.10;10.25;;;;;;;7.27;70.42;99688.16;5072449;28;20402;-48
2024/02/21 02:23:31;;;;;;;18.77;12.05;;;;;;;7.25;70.75;99679.66;5054489;28;20033;-48
2024/02/21 02:25:57;;;;;;;19.45;9.77;;;;;;;7.13;70.72;99681.69;5072371;28;20055;-49
2024/02/21 02:28:23;;;;;;;14.85;7.65;;;;;;;7.03;71.08;99674.94;5071109;28;20028;-48
2024/02/21 02:30:49;;;;;;;19.33;6.80;;;;;;;7.09;71.90;99672.53;5072282;28;20032;-48
2024/02/21 02:33:17;;;;;;;14.73;7.53;;;;;;;7.29;71.75;99669.72;5070944;28;20051;-48
2024/02/21 02:35:43;;;;;;;21.05;14.93;;;;;;;7.30;70.56;99660.91;5072402;28;20055;-48
2024/02/21 02:38:09;;;;;;;15.57;10.73;;;;;;;7.19;71.06;99662.00;5072097;28;20023;-48
2024/02/21 02:40:35;;;;;;;16.88;9.43;;;;;;;7.27;71.28;99666.44;5072060;28;20514;-49
2024/02/21 02:43:01;;;;;;;12.70;7.82;;;;;;;7.52;71.67;99665.56;5072368;28;20436;-49
2024/02/21 02:45:27;;;;;;;19.38;10.52;;;;;;;7.74;70.79;99672.03;5070595;28;20390;-48
2024/02/21 02:47:54;;;;;;;17.23;10.85;;;;;;;7.65;68.98;99667.78;5070744;28;20028;-48
2024/02/21 02:50:20;;;;;;;23.17;19.58;;;;;;;7.61;70.05;99663.84;5070643;28;20021;-49
2024/02/21 02:52:46;;;;;;;16.55;12.98;;;;;;;7.82;69.59;99650.34;5071935;28;20024;-48
2024/02/21 02:55:12;;;;;;;20.45;15.80;;;;;;;7.95;68.62;99649.91;5071953;28;20402;-49
2024/02/21 02:57:38;;;;;;;20.05;17.25;;;;;;;7.99;69.10;99638.16;5071900;28;20017;-48
2024/02/21 03:00:06;;;;;;;17.52;10.75;;;;;;;8.09;68.55;99628.38;5070804;28;20020;-48
2024/02/21 03:02:32;;;;;;;11.23;8.27;;;;;;;8.25;67.59;99611.06;5072151;28;20025;-48
2024/02/21 03:04:58;;;;;;;15.05;7.65;;;;;;;8.04;66.89;99609.72;5071791;28;20024;-49
2024/02/21 03:07:25;;;;;;;11.85;7.00;;;;;;;8.02;67.97;99589.97;5071754;28;20028;-48
2024/02/21 03:09:53;;;;;;;13.40;7.20;;;;;;;8.02;67.60;99601.22;5071777;28;20028;-49
2024/02/21 03:12:24;;;;;;;15.52;7.57;;;;;;;7.97;67.11;99586.03;5071729;28;20044;-49
2024/02/21 03:14:53;;;;;;;11.15;6.93;;;;;;;7.77;67.55;99587.31;5070342;28;20036;-49
2024/02/21 03:17:19;;;;;;;11.07;6.70;;;;;;;7.49;68.92;99581.53;5071714;28;20036;-49
2024/02/21 03:19:45;;;;;;;13.20;7.97;;;;;;;7.44;68.89;99575.94;5070334;28;20082;-49
2024/02/21 03:22:10;;;;;;;13.65;7.35;;;;;;;7.42;68.97;99573.47;5070380;28;20494;-48
2024/02/21 03:24:36;;;;;;;13.60;7.95;;;;;;;7.29;69.75;99573.13;5071609;28;20024;-48
2024/02/21 03:27:02;;;;;;;13.18;7.38;;;;;;;7.19;69.57;99563.59;5071293;28;20040;-49
2024/02/21 03:29:28;;;;;;;11.75;8.15;;;;;;;7.06;70.60;99551.94;5070552;28;20044;-48
2024/02/21 03:31:54;;;;;;;12.15;7.88;;;;;;;7.08;70.81;99558.66;5070217;28;20067;-49
2024/02/21 03:34:21;;;;;;;12.00;7.78;;;;;;;7.04;70.83;99546.88;5070264;28;20326;-48
2024/02/21 03:36:46;;;;;;;15.45;8.18;;;;;;;6.87;71.26;99550.41;5071452;28;20387;-48
2024/02/21 03:39:12;;;;;;;15.73;7.70;;;;;;;6.77;71.18;99551.31;5070209;28;20025;-48
2024/02/21 03:41:38;;;;;;;15.10;7.68;;;;;;;6.73;72.03;99551.78;5070180;28;20086;-49
2024/02/21 03:44:04;;;;;;;14.38;8.65;;;;;;;6.67;72.31;99549.78;5070164;28;20469;-49
2024/02/21 03:46:31;;;;;;;15.30;8.13;;;;;;;6.72;72.24;99561.41;5071266;28;20028;-48
2024/02/21 03:48:57;;;;;;;15.45;8.70;;;;;;;6.72;72.37;99563.19;5071359;28;20077;-49
2024/02/21 03:51:23;;;;;;;13.70;8.13;;;;;;;6.83;72.95;99564.72;5071493;28;20020;-49
2024/02/21 03:53:49;;;;;;;15.00;8.98;;;;;;;6.74;72.16;99563.84;5071492;28;20108;-48
2024/02/21 03:56:15;;;;;;;13.05;7.70;;;;;;;6.75;72.45;99552.44;5070399;28;20119;-49
2024/02/21 03:58:41;;;;;;;14.27;7.97;;;;;;;6.66;72.46;99546.38;5071382;28;20024;-48
2024/02/21 04:01:06;;;;;;;15.13;8.50;;;;;;;6.63;72.81;99540.66;5071237;28;20082;-48
2024/02/21 04:03:35;;;;;;;14.27;7.57;;;;;;;6.66;73.52;99541.16;5071297;28;20082;-49
2024/02/21 04:06:01;;;;;;;14.65;7.78;;;;;;;6.65;73.51;99549.94;5071163;28;20020;-48
2024/02/21 04:08:27;;;;;;;11.25;7.85;;;;;;;6.62;73.30;99547.66;5069868;28;20031;-49
2024/02/21 04:10:52;;;;;;;12.57;7.90;;;;;;;6.63;73.34;99557.09;5071191;28;20025;-49
2024/02/21 04:13:18;;;;;;;12.40;7.35;;;;;;;6.72;73.15;99553.59;5071200;28;20074;-49
2024/02/21 04:15:44;;;;;;;16.52;8.57;;;;;;;6.65;72.82;99549.13;5069828;28;20468;-49
2024/02/21 04:18:10;;;;;;;15.43;8.02;;;;;;;6.62;73.83;99545.06;5069823;28;20114;-48
2024/02/21 04:20:35;;;;;;;13.20;7.63;;;;;;;6.64;73.27;99537.03;5071307;28;20096;-49
2024/02/21 04:23:01;;;;;;;13.95;7.30;;;;;;;6.51;73.12;99540.88;5071305;28;20028;-48
2024/02/21 04:25:27;;;;;;;16.27;8.18;;;;;;;6.42;73.58;99546.19;5071051;28;20544;-48
2024/02/21 04:27:53;;;;;;;13.38;7.82;;;;;;;6.33;73.97;99540.09;5074500;28;20097;-49
2024/02/21 04:30:19;;;;;;;13.45;8.30;;;;;;;6.28;74.68;99543.19;5073245;28;20085;-48
2024/02/21 04:32:45;;;;;;;18.40;8.18;;;;;;;6.42;74.50;99544.44;5073222;28;20111;-48
2024/02/21 04:35:10;;;;;;;14.32;8.65;;;;;;;6.50;75.19;99539.25;5074490;28;20035;-46
2024/02/21 04:37:36;;;;;;;16.15;8.52;;;;;;;6.63;74.29;99530.22;5074443;28;20028;-46
2024/02/21 04:40:02;;;;;;;15.30;7.47;;;;;;;6.57;73.79;99522.00;5073154;28;20062;-46
2024/02/21 04:42:27;;;;;;;15.05;7.97;;;;;;;6.51;73.64;99522.63;5056439;28;20025;-47
2024/02/21 04:44:53;;;;;;;14.95;7.65;;;;;;;6.67;74.30;99528.94;5074257;28;20401;-47
2024/02/21 04:47:23;;;;;;;13.38;7.18;;;;;;;6.72;72.72;99517.06;5074337;28;20032;-46
2024/02/21 04:49:49;;;;;;;14.32;7.00;;;;;;;6.53;73.41;99520.69;5073241;28;20024;-46
2024/02/21 04:52:15;;;;;;;15.18;7.90;;;;;;;6.42;73.64;99520.97;5074121;28;20024;-47
2024/02/21 04:54:40;;;;;;;11.95;6.88;;;;;;;6.40;74.49;99520.28;5074132;28;20060;-46
2024/02/21 04:57:06;;;;;;;11.40;7.10;;;;;;;6.45;74.19;99518.03;5074332;28;20513;-47
2024/02/21 04:59:32;;;;;;;13.95;7.45;;;;;;;6.38;73.57;99517.84;5072741;28;20025;-46
2024/02/21 05:01:58;;;;;;;14.77;8.85;;;;;;;6.40;74.23;99522.91;5072825;28;20084;-46
2024/02/21 05:04:24;;;;;;;12.88;7.75;;;;;;;6.54;74.60;99526.72;5072699;28;20029;-47
2024/02/21 05:06:50;;;;;;;13.63;7.20;;;;;;;6.66;74.60;99524.66;5072536;28;20621;-46
2024/02/21 05:09:16;;;;;;;21.00;7.40;;;;;;;6.89;74.65;99528.38;5073867;28;20025;-47
2024/02/21 05:11:41;;;;;;;13.50;7.28;;;;;;;7.20;73.95;99526.09;5072482;28;20505;-47
2024/02/21 05:14:07;;;;;;;12.27;7.22;;;;;;;7.18;73.29;99522.81;5073805;28;20402;-46
2024/02/21 05:16:33;;;;;;;15.45;8.80;;;;;;;7.19;72.71;99515.81;5072456;28;20044;-46
2024/02/21 05:18:58;;;;;;;16.08;9.52;;;;;;;7.22;72.82;99519.88;5072431;28;20115;-46
2024/02/21 05:21:25;;;;;;;19.73;13.27;;;;;;;7.28;73.06;99520.06;5073687;28;20056;-46
2024/02/21 05:23:51;;;;;;;14.80;9.45;;;;;;;7.34;72.38;99516.81;5072309;28;20111;-46
2024/02/21 05:26:24;;;;;;;18.38;8.85;;;;;;;7.37;72.34;99518.31;5071757;28;20503;-46
2024/02/21 05:28:51;;;;;;;17.25;8.38;;;;;;;7.42;71.70;99520.44;5089161;28;20408;-46
2024/02/21 05:31:18;;;;;;;18.55;13.15;;;;;;;7.33;71.38;99512.59;5072120;28;20119;-46
2024/02/21 05:33:44;;;;;;;15.40;9.00;;;;;;;7.36;71.50;99519.28;5072069;28;20020;-46
2024/02/21 05:36:10;;;;;;;16.63;8.20;;;;;;;7.36;71.36;99514.06;5073231;28;20098;-46
2024/02/21 05:38:36;;;;;;;19.27;8.50;;;;;;;7.23;71.29;99514.50;5072010;28;20103;-46
2024/02/21 05:41:02;;;;;;;19.85;9.35;;;;;;;7.29;71.48;99513.06;5071951;28;20455;-46
2024/02/21 05:43:28;;;;;;;23.52;9.70;;;;;;;7.29;72.01;99516.50;5073188;28;20024;-46
2024/02/21 05:45:55;;;;;;;21.05;9.13;;;;;;;7.24;70.94;99521.34;5071773;28;20119;-46
2024/02/21 05:48:22;;;;;;;18.63;9.00;;;;;;;7.15;71.85;99517.91;5073419;28;20183;-46
2024/02/21 05:50:47;;;;;;;19.80;9.52;;;;;;;7.18;71.39;99520.22;5073072;28;20050;-46
2024/02/21 05:53:13;;;;;;;15.38;9.32;;;;;;;7.20;71.37;99517.41;5073007;28;20073;-46
2024/02/21 05:55:39;;;;;;;24.92;9.02;;;;;;;7.14;71.36;99525.88;5072965;28;20024;-46
2024/02/21 05:58:05;;;;;;;18.52;8.77;;;;;;;7.04;70.96;99523.38;5071641;28;20028;-47
2024/02/21 06:00:32;;;;;;;19.35;9.50;;;;;;;6.94;71.70;99533.13;5072794;28;20029;-46
2024/02/21 06:02:58;;;;;;;18.58;9.65;;;;;;;6.91;71.73;99525.63;5071570;28;20066;-47
2024/02/21 06:05:24;;;;;;;43.83;12.27;;;;;;;6.97;71.94;99528.44;5072702;28;20109;-46
2024/02/21 06:07:50;;;;;;;23.67;8.73;;;;;;;7.08;71.57;99534.34;5071423;28;20609;-46
2024/02/21 06:10:15;;;;;;;20.25;9.50;;;;;;;7.11;71.59;99534.84;5071373;28;20028;-46
2024/02/21 06:12:41;;;;;;;21.95;13.52;;;;;;;7.07;71.30;99540.56;5072529;28;20405;-46
2024/02/21 06:15:07;;;;;;;17.80;9.18;;;;;;;6.96;70.97;99529.41;5072523;28;20024;-46
2024/02/21 06:17:33;;;;;;;16.95;8.90;;;;;;;6.81;71.25;99528.34;5073087;28;20025;-46
2024/02/21 06:19:58;;;;;;;14.00;8.75;;;;;;;6.72;72.04;99534.50;5072454;28;20028;-46
2024/02/21 06:22:24;;;;;;;15.60;9.95;;;;;;;6.71;72.34;99538.09;5072433;28;20029;-46
2024/02/21 06:24:50;;;;;;;16.30;10.02;;;;;;;6.70;72.64;99536.44;5071081;28;20023;-46
2024/02/21 06:27:17;;;;;;;16.25;10.57;;;;;;;6.58;72.85;99528.88;5072136;28;20048;-46
2024/02/21 06:29:43;;;;;;;20.58;10.93;;;;;;;6.50;73.49;99535.81;5072257;28;20029;-46
2024/02/21 06:32:08;;;;;;;17.42;9.18;;;;;;;6.42;73.86;99533.16;5087909;28;20432;-46
2024/02/21 06:34:34;;;;;;;20.30;9.35;;;;;;;6.38;74.97;99535.28;5072226;28;20028;-46
2024/02/21 06:37:00;;;;;;;19.50;11.70;;;;;;;6.40;75.54;99535.94;5072213;28;20050;-47
2024/02/21 06:39:25;;;;;;;25.58;13.90;;;;;;;6.51;74.77;99546.09;5070927;28;20037;-46
2024/02/21 06:41:53;;;;;;;22.42;13.73;;;;;;;6.77;75.30;99540.88;5070825;28;20036;-46
2024/02/21 06:44:19;;;;;;;21.92;12.35;;;;;;;7.06;74.72;99538.91;5070818;28;20398;-46
2024/02/21 06:46:45;;;;;;;28.00;21.48;;;;;;;7.33;73.86;99536.09;5071957;28;20024;-48
2024/02/21 06:49:17;;;;;;;28.70;13.40;;;;;;;7.43;73.53;99537.75;5070263;28;20032;-49
2024/02/21 06:51:43;;;;;;;19.10;11.68;;;;;;;7.33;71.60;99527.44;5072264;28;20406;-49
2024/02/21 06:54:09;;;;;;;23.60;11.13;;;;;;;7.07;71.78;99535.34;5071971;28;20077;-49
2024/02/21 06:56:36;;;;;;;37.78;15.13;;;;;;;6.95;73.33;99535.59;5071840;28;20499;-49
2024/02/21 06:59:03;;;;;;;29.13;15.40;;;;;;;7.05;73.24;99539.91;5071878;28;20020;-47
2024/02/21 07:01:29;;;;;;;80.55;71.50;;;;;;;6.97;73.22;99538.06;5072045;28;20097;-46
2024/02/21 07:03:56;;;;;;;54.53;48.22;;;;;;;6.94;74.00;99539.19;5053835;28;20115;-46
2024/02/21 07:06:21;;;;;;;74.25;67.03;;;;;;;7.01;73.61;99544.59;5071692;28;20021;-46
2024/02/21 07:08:47;;;;;;;203.23;185.15;;;;;;;7.03;73.17;99549.66;5072111;28;20104;-46
2024/02/21 07:11:13;;;;;;;129.77;118.25;;;;;;;7.07;72.70;99548.38;5071767;28;20390;-46
2024/02/21 07:13:39;;;;;;;109.50;99.38;;;;;;;7.07;73.00;99553.59;5071768;28;20017;-46
2024/02/21 07:16:05;;;;;;;76.25;68.63;;;;;;;7.06;73.38;99560.59;5070407;28;20033;-46
2024/02/21 07:18:31;;;;;;;50.42;42.80;;;;;;;6.95;73.25;99555.66;5070364;28;20055;-47
2024/02/21 07:20:58;;;;;;;69.85;62.60;;;;;;;7.04;74.13;99557.31;5071681;28;20099;-46
2024/02/21 07:23:24;;;;;;;38.65;29.00;;;;;;;7.38;74.33;99556.50;5071630;28;20025;-46
2024/02/21 07:25:49;;;;;;;35.60;31.80;;;;;;;7.85;74.45;99557.75;5071551;28;20027;-47
2024/02/21 07:28:16;;;;;;;27.63;22.17;;;;;;;8.22;73.37;99557.28;5070153;28;20522;-49
2024/02/21 07:30:42;;;;;;;22.65;16.45;;;;;;;8.57;72.76;99552.72;5071466;28;20037;-49
2024/02/21 07:33:08;;;;;;;249.43;227.52;;;;;;;8.67;69.91;99566.47;5071537;28;20552;-49
2024/02/21 07:35:34;;;;;;;73.93;66.90;;;;;;;8.30;69.19;99552.06;5071537;28;20036;-49
2024/02/21 07:38:00;;;;;;;79.13;71.32;;;;;;;8.09;68.91;99544.72;5070196;28;20390;-49
2024/02/21 07:40:25;;;;;;;54.35;48.05;;;;;;;8.04;70.52;99538.34;5071457;28;20025;-49
2024/02/21 07:42:51;;;;;;;86.45;78.00;;;;;;;8.22;69.70;99528.53;5070190;28;20405;-49
2024/02/21 07:45:18;;;;;;;93.07;84.47;;;;;;;8.53;69.47;99517.41;5070038;28;20025;-49
2024/02/21 07:47:44;;;;;;;56.35;47.00;;;;;;;8.60;68.23;99511.34;5071659;28;20055;-49
2024/02/21 07:50:10;;;;;;;40.35;36.05;;;;;;;8.90;67.05;99508.97;5071439;28;20025;-49
2024/02/21 07:52:35;;;;;;;61.08;55.17;;;;;;;8.77;66.92;99511.31;5070019;28;20028;-49
2024/02/21 07:55:01;;;;;;;49.65;44.47;;;;;;;8.63;67.31;99517.22;5071324;28;20032;-47
2024/02/21 07:57:27;;;;;;;37.00;27.38;;;;;;;8.55;67.83;99512.81;5071337;28;20066;-49
2024/02/21 07:59:54;;;;;;;28.02;17.25;;;;;;;8.67;68.16;99516.75;5071820;28;20025;-49
2024/02/21 08:02:19;;;;;;;36.83;32.90;;;;;;;8.72;67.32;99511.00;5075132;28;20052;-49
2024/02/21 08:04:45;;;;;;;31.13;25.60;;;;;;;8.81;67.48;99515.22;5074038;28;20581;-49
2024/02/21 08:07:11;;;;;;;33.42;28.00;;;;;;;8.96;67.34;99516.16;5057017;28;20033;-49
2024/02/21 08:09:39;;;;;;;25.27;21.40;;;;;;;9.06;66.29;99505.50;5075250;28;20056;-49
2024/02/21 08:12:05;;;;;;;27.88;18.75;;;;;;;8.96;66.67;99507.50;5073628;28;20033;-49
2024/02/21 08:14:31;;;;;;;22.77;19.67;;;;;;;9.02;66.78;99501.56;5074886;28;20058;-49
2024/02/21 08:16:57;;;;;;;25.77;16.80;;;;;;;8.96;66.92;99505.69;5074824;28;20029;-48
2024/02/21 08:19:23;;;;;;;23.98;11.18;;;;;;;9.06;66.99;99500.25;5074793;28;20077;-49
2024/02/21 08:21:48;;;;;;;39.53;26.30;;;;;;;9.37;67.53;99496.81;5074720;28;20063;-49
2024/02/21 08:24:17;;;;;;;24.95;15.32;;;;;;;9.72;65.40;99492.03;5074741;28;20108;-49
2024/02/21 08:26:47;;;;;;;30.80;13.00;;;;;;;9.74;64.58;99492.69;5074273;28;20434;-49
2024/02/21 08:29:13;;;;;;;24.88;9.75;;;;;;;9.56;64.98;99490.34;5074650;28;20059;-49
2024/02/21 08:31:38;;;;;;;26.20;15.75;;;;;;;9.63;65.13;99493.88;5074597;28;20028;-48
2024/02/21 08:34:04;;;;;;;24.42;10.73;;;;;;;9.76;65.35;99485.44;5074577;28;20024;-49
2024/02/21 08:36:32;;;;;;;18.67;7.82;;;;;;;10.07;64.42;99485.34;5074481;28;20032;-49
2024/02/21 08:39:05;;;;;;;24.25;9.00;;;;;;;10.21;63.26;99478.50;5074767;28;20028;-49
2024/02/21 08:41:32;;;;;;;21.55;10.18;;;;;;;10.40;63.49;99482.44;5074508;28;20595;-49
2024/02/21 08:43:58;;;;;;;16.20;8.27;;;;;;;10.55;62.16;99474.59;5073421;28;20024;-49
2024/02/21 08:46:24;;;;;;;19.80;7.72;;;;;;;10.49;62.20;99475.31;5074303;28;20055;-49
2024/02/21 08:48:53;;;;;;;14.90;7.93;;;;;;;10.32;62.25;99472.88;5074275;28;20081;-49
2024/02/21 08:51:20;;;;;;;15.73;9.20;;;;;;;10.32;64.08;99477.28;5074271;28;20519;-46
2024/02/21 08:53:46;;;;;;;13.40;7.88;;;;;;;10.46;64.39;99470.44;5074180;28;20032;-47
2024/02/21 08:56:13;;;;;;;11.30;8.18;;;;;;;10.74;64.29;99466.16;5074192;28;20028;-47
2024/02/21 08:58:40;;;;;;;17.60;7.90;;;;;;;11.04;63.45;99460.09;5074149;28;20036;-46
2024/02/21 09:01:09;;;;;;;14.10;7.85;;;;;;;11.18;62.47;99448.72;5074089;28;20024;-47
2024/02/21 09:03:39;;;;;;;25.67;14.50;;;;;;;11.15;61.39;99449.09;5074015;28;20024;-47
2024/02/21 09:06:06;;;;;;;19.90;12.73;;;;;;;11.35;61.51;99452.75;5073921;28;20029;-49
2024/02/21 09:08:32;;;;;;;19.58;12.35;;;;;;;11.56;60.03;99443.25;5073882;28;20082;-48
2024/02/21 09:10:58;;;;;;;16.20;8.95;;;;;;;11.80;59.36;99432.34;5072205;28;20121;-49
2024/02/21 09:13:24;;;;;;;14.30;7.80;;;;;;;12.37;57.83;99427.09;5073801;28;20101;-49
2024/02/21 09:15:50;;;;;;;14.82;7.78;;;;;;;13.03;56.14;99434.50;5073714;28;20086;-49
2024/02/21 09:18:16;;;;;;;12.57;7.28;;;;;;;13.14;54.38;99427.88;5072468;28;20017;-48
2024/02/21 09:20:43;;;;;;;16.98;6.50;;;;;;;13.11;54.46;99428.25;5072310;28;20033;-49
2024/02/21 09:23:09;;;;;;;13.23;6.13;;;;;;;13.39;54.89;99426.31;5056052;28;20036;-49
2024/02/21 09:25:35;;;;;;;13.00;6.03;;;;;;;13.35;53.18;99417.19;5072185;28;20029;-49
2024/02/21 09:28:02;;;;;;;15.50;7.68;;;;;;;13.42;54.82;99424.28;5073380;28;20111;-47
2024/02/21 09:30:28;;;;;;;17.33;6.18;;;;;;;13.75;52.96;99414.59;5073432;28;20074;-47
2024/02/21 09:32:54;;;;;;;11.57;6.70;;;;;;;14.05;51.83;99403.63;5072246;28;20025;-47
2024/02/21 09:35:23;;;;;;;10.98;6.45;;;;;;;14.68;50.74;99399.63;5073686;28;20032;-47
2024/02/21 09:37:49;;;;;;;13.55;7.78;;;;;;;15.26;49.61;99393.44;5072114;28;20025;-47
2024/02/21 09:40:18;;;;;;;20.50;6.20;;;;;;;15.86;51.12;99391.19;5071989;28;20032;-47
2024/02/21 09:42:45;;;;;;;12.77;7.15;;;;;;;15.62;55.87;99381.38;5073258;28;20017;-47
2024/02/21 09:45:23;;;;;;;18.20;7.20;;;;;;;15.10;51.45;99378.91;5071830;28;20051;-49
2024/02/21 09:48:16;;;;;;;11.68;6.65;;;;;;;15.11;53.37;99377.84;5073208;28;20024;-49
2024/02/21 09:50:43;;;;;;;11.25;5.70;;;;;;;15.27;53.03;99374.72;5071774;28;20028;-49
2024/02/21 09:53:16;;;;;;;11.27;5.80;;;;;;;15.57;53.03;99379.38;5071753;28;20028;-49
2024/02/21 09:55:43;;;;;;;13.32;6.00;;;;;;;16.04;50.01;99363.13;5072179;28;20047;-48
2024/02/21 09:58:10;;;;;;;23.23;7.60;;;;;;;16.66;47.11;99361.22;5072884;28;20021;-48
2024/02/21 10:00:36;;;;;;;15.15;8.50;;;;;;;16.90;47.17;99353.34;5072938;28;20025;-47
2024/02/21 10:03:07;;;;;;;12.82;6.15;;;;;;;17.22;45.81;99350.47;5071548;28;20046;-47
2024/02/21 10:05:37;;;;;;;12.07;5.68;;;;;;;17.37;44.56;99348.19;5072764;28;20024;-47
2024/02/21 10:08:04;;;;;;;8.52;4.68;;;;;;;17.36;43.14;99350.06;5071488;28;20547;-45
2024/02/21 10:10:40;;;;;;;11.65;5.00;;;;;;;17.20;43.37;99333.97;5072679;28;20578;-44
2024/02/21 10:13:06;;;;;;;8.25;3.95;;;;;;;17.25;43.34;99332.25;5072714;28;20029;-45
2024/02/21 10:15:32;;;;;;;22.40;7.30;;;;;;;17.14;50.20;99336.50;5072475;28;20077;-44
2024/02/21 10:18:06;;;;;;;14.05;5.28;;;;;;;16.92;46.93;99332.72;5071302;28;20115;-44
2024/02/21 10:20:34;;;;;;;11.88;5.57;;;;;;;16.66;55.56;99331.22;5072481;28;20121;-46
2024/02/21 10:23:07;;;;;;;11.95;6.65;;;;;;;16.43;50.38;99316.03;5070693;28;20174;-46
2024/02/21 10:25:35;;;;;;;32.25;18.45;;;;;;;16.78;49.85;99305.56;5072328;28;20035;-46
2024/02/21 10:28:06;;;;;;;38.75;33.90;;;;;;;17.11;45.69;99291.88;5072049;28;20053;-47
2024/02/21 10:30:32;;;;;;;29.17;18.77;;;;;;;17.10;44.80;99295.56;5072550;28;20398;-47
2024/02/21 10:32:58;;;;;;;17.13;11.57;;;;;;;17.12;44.34;99295.31;5072299;28;20017;-46
2024/02/21 10:35:31;;;;;;;16.52;12.38;;;;;;;17.08;43.75;99296.81;5070897;28;20473;-46
2024/02/21 10:37:57;;;;;;;17.42;14.10;;;;;;;17.04;44.60;99290.34;5070927;28;20032;-46
2024/02/21 10:40:31;;;;;;;15.30;8.57;;;;;;;17.17;44.69;99288.28;5070780;28;20437;-47
2024/02/21 10:42:59;;;;;;;15.90;6.85;;;;;;;17.14;43.46;99287.94;5070854;28;20032;-44
2024/02/21 10:45:34;;;;;;;9.73;6.03;;;;;;;17.22;43.75;99290.25;5071948;28;20024;-45
2024/02/21 10:48:12;;;;;;;15.45;9.07;;;;;;;17.54;42.82;99282.78;5072168;28;20029;-45
2024/02/21 10:50:59;;;;;;;19.65;9.52;;;;;;;18.23;41.78;99270.69;5071992;28;20032;-45
2024/02/21 10:53:46;;;;;;;8.77;2.92;;;;;;;19.13;38.44;99269.13;5070659;28;20123;-45
2024/02/21 10:56:17;;;;;;;9.27;3.38;;;;;;;19.63;36.30;99264.81;5071962;28;20051;-46
2024/02/21 10:58:46;;;;;;;6.85;2.60;;;;;;;19.80;34.81;99259.47;5071943;28;20035;-47
2024/02/21 11:01:14;;;;;;;6.53;3.55;;;;;;;19.94;35.99;99260.72;5071844;28;20032;-47
2024/02/21 11:03:45;;;;;;;22.42;5.95;;;;;;;20.04;36.76;99257.38;5072000;28;20021;-47
2024/02/21 11:06:13;;;;;;;19.90;4.22;;;;;;;20.38;36.26;99249.25;5071839;28;20029;-47
2024/02/21 11:08:39;;;;;;;15.85;3.80;;;;;;;20.74;35.71;99237.09;5071749;28;20056;-47
2024/02/21 11:11:05;;;;;;;7.70;3.10;;;;;;;21.00;35.45;99235.44;5071753;28;20051;-45
2024/02/21 11:13:41;;;;;;;10.35;4.07;;;;;;;21.27;33.16;99218.53;5072061;28;20107;-45
2024/02/21 11:16:11;;;;;;;7.78;2.72;;;;;;;21.50;32.58;99228.06;5070456;28;20028;-45
2024/02/21 11:18:37;;;;;;;5.22;2.30;;;;;;;22.01;31.49;99220.25;5070413;28;20446;-45
2024/02/21 11:21:07;;;;;;;7.38;2.60;;;;;;;22.13;31.13;99212.84;5070500;28;20062;-45
2024/02/21 11:23:33;;;;;;;5.18;2.00;;;;;;;22.29;30.33;99208.31;5071732;28;20079;-45
2024/02/21 11:26:09;;;;;;;12.60;4.88;;;;;;;22.33;30.41;99196.06;5070271;28;20032;-46
2024/02/21 11:28:37;;;;;;;8.05;3.20;;;;;;;22.59;30.49;99196.06;5071480;28;20047;-47